Time;durP1;ratioP1;P1;durP2;ratioP2;P2;SDS_P1;SDS_P2;PMS_P1;PMS_P2;Temp;Humidity;BMP_temperature;BMP_pressure;BME280_temperature;BME280_humidity;BME280_pressure;Samples;Min_cycle;Max_cycle;Signal;HPM_P1;HPM_P2
2023/09/27 00:01:39;;;;;;;4.00;2.40;;;19.30;88.60;;;;;;5019747;28;20096;-78
2023/09/27 00:04:05;;;;;;;4.30;2.55;;;19.30;88.60;;;;;;4994937;28;20129;-79
2023/09/27 00:06:30;;;;;;;4.20;2.58;;;19.30;88.50;;;;;;5013266;28;20098;-79
2023/09/27 00:08:56;;;;;;;5.50;2.95;;;19.30;88.50;;;;;;5002080;28;20034;-79
2023/09/27 00:11:21;;;;;;;5.18;2.70;;;19.30;88.40;;;;;;4995933;28;20022;-79
2023/09/27 00:13:47;;;;;;;4.35;2.67;;;19.30;88.50;;;;;;5013605;28;20033;-79
2023/09/27 00:16:12;;;;;;;4.90;2.65;;;19.30;88.50;;;;;;5002184;28;20022;-79
2023/09/27 00:18:38;;;;;;;6.00;2.90;;;19.20;88.50;;;;;;4995454;28;20050;-80
2023/09/27 00:21:03;;;;;;;4.32;2.58;;;19.30;88.60;;;;;;4995588;28;20502;-79
2023/09/27 00:23:29;;;;;;;3.88;2.63;;;19.20;88.60;;;;;;4994924;28;20026;-79
2023/09/27 00:25:54;;;;;;;3.78;2.40;;;19.30;88.60;;;;;;5012742;28;20407;-78
2023/09/27 00:28:20;;;;;;;4.93;2.67;;;19.20;88.60;;;;;;4995319;28;20030;-79
2023/09/27 00:30:45;;;;;;;3.85;2.30;;;19.20;88.60;;;;;;5001591;28;20029;-79
2023/09/27 00:33:11;;;;;;;4.32;2.80;;;19.30;88.70;;;;;;5014942;28;20068;-79
2023/09/27 00:35:36;;;;;;;4.35;2.65;;;19.30;88.60;;;;;;5014819;28;20552;-78
2023/09/27 00:38:02;;;;;;;5.22;2.75;;;19.20;88.60;;;;;;5032697;28;20032;-79
2023/09/27 00:40:28;;;;;;;5.07;2.90;;;19.30;88.60;;;;;;5014512;28;20029;-77
2023/09/27 00:42:53;;;;;;;5.07;2.78;;;19.20;88.60;;;;;;5032138;28;20028;-78
2023/09/27 00:45:19;;;;;;;4.60;2.67;;;19.20;88.70;;;;;;5032045;28;20475;-79
2023/09/27 00:47:49;;;;;;;4.50;2.60;;;19.20;88.90;;;;;;5002188;28;20041;-79
2023/09/27 00:50:15;;;;;;;5.03;2.70;;;19.30;89.00;;;;;;5011009;28;20036;-80
2023/09/27 00:52:42;;;;;;;4.82;2.65;;;19.20;88.80;;;;;;5014609;28;20260;-79
2023/09/27 00:55:11;;;;;;;5.05;2.78;;;19.30;88.80;;;;;;5014529;28;20030;-80
2023/09/27 00:57:37;;;;;;;4.18;2.53;;;19.30;88.70;;;;;;5014319;28;20026;-80
2023/09/27 01:00:03;;;;;;;4.75;2.90;;;19.30;88.70;;;;;;5014151;28;20029;-79
2023/09/27 01:02:28;;;;;;;4.43;2.70;;;19.30;89.20;;;;;;5014439;28;20030;-79
2023/09/27 01:04:54;;;;;;;4.97;2.85;;;19.30;88.70;;;;;;5014411;28;20117;-79
2023/09/27 01:07:20;;;;;;;5.20;2.70;;;19.30;88.50;;;;;;5014467;28;20091;-78
2023/09/27 01:09:45;;;;;;;5.15;2.83;;;19.30;88.50;;;;;;5014010;28;20029;-79
2023/09/27 01:12:11;;;;;;;4.75;2.85;;;19.20;88.50;;;;;;5014336;28;20577;-79
2023/09/27 01:14:37;;;;;;;4.97;2.88;;;19.30;88.50;;;;;;5014473;28;20025;-80
2023/09/27 01:17:09;;;;;;;5.13;3.03;;;19.30;88.60;;;;;;5031885;28;20040;-79
2023/09/27 01:19:35;;;;;;;4.13;2.70;;;19.30;88.60;;;;;;5014009;28;20109;-78
2023/09/27 01:22:01;;;;;;;4.65;2.90;;;19.20;88.60;;;;;;5014497;28;20117;-79
2023/09/27 01:24:29;;;;;;;4.45;2.92;;;19.20;88.60;;;;;;5014855;28;20105;-79
2023/09/27 01:26:55;;;;;;;5.28;3.00;;;19.20;88.70;;;;;;5014835;28;20491;-79
2023/09/27 01:29:21;;;;;;;4.38;2.67;;;19.20;88.70;;;;;;5014404;28;20440;-79
2023/09/27 01:31:46;;;;;;;4.75;2.88;;;19.20;88.70;;;;;;5014536;28;20112;-79
2023/09/27 01:34:12;;;;;;;5.25;3.25;;;19.20;88.70;;;;;;5016915;28;20021;-80
2023/09/27 01:36:38;;;;;;;4.70;3.15;;;19.20;88.70;;;;;;5036455;28;20029;-81
2023/09/27 01:39:03;;;;;;;4.80;2.95;;;19.20;88.70;;;;;;5035999;28;20033;-80
2023/09/27 01:41:29;;;;;;;4.55;3.00;;;19.20;88.70;;;;;;5018621;28;20635;-79
2023/09/27 01:43:54;;;;;;;4.57;2.90;;;19.20;88.70;;;;;;5018558;28;20014;-79
2023/09/27 01:46:20;;;;;;;5.30;3.15;;;19.20;88.90;;;;;;5018543;28;20045;-79
2023/09/27 01:48:45;;;;;;;5.70;2.97;;;19.20;88.90;;;;;;5018224;28;20025;-78
2023/09/27 01:51:13;;;;;;;4.95;2.90;;;19.30;89.00;;;;;;5018310;28;20032;-80
2023/09/27 01:53:39;;;;;;;4.40;2.80;;;19.20;88.90;;;;;;5018499;28;20033;-79
2023/09/27 01:56:04;;;;;;;4.90;2.72;;;19.20;88.80;;;;;;5018399;28;20032;-78
2023/09/27 01:58:30;;;;;;;5.22;3.10;;;19.30;88.80;;;;;;5018181;28;20071;-79
2023/09/27 02:00:55;;;;;;;5.10;2.70;;;19.30;88.80;;;;;;5018118;28;20034;-79
2023/09/27 02:03:21;;;;;;;5.32;3.35;;;19.30;88.80;;;;;;5018241;28;20550;-79
2023/09/27 02:05:46;;;;;;;5.45;3.08;;;19.30;88.60;;;;;;5018508;28;20022;-79
2023/09/27 02:08:12;;;;;;;4.60;3.17;;;19.20;88.50;;;;;;5035836;28;20028;-79
2023/09/27 02:10:38;;;;;;;4.93;2.90;;;19.30;88.60;;;;;;5017866;28;20030;-79
2023/09/27 02:13:03;;;;;;;4.95;3.08;;;19.20;88.60;;;;;;5018289;28;20064;-79
2023/09/27 02:15:29;;;;;;;4.18;2.97;;;19.20;88.70;;;;;;5021810;28;20072;-79
2023/09/27 02:17:55;;;;;;;4.63;2.70;;;19.20;88.70;;;;;;5016462;28;20467;-79
2023/09/27 02:20:20;;;;;;;5.15;3.40;;;19.20;88.80;;;;;;5035314;28;20023;-80
2023/09/27 02:22:47;;;;;;;4.80;2.90;;;19.20;88.80;;;;;;5017954;28;20018;-79
2023/09/27 02:25:14;;;;;;;5.22;3.15;;;19.20;88.80;;;;;;5017849;28;20545;-79
2023/09/27 02:27:41;;;;;;;5.00;3.00;;;19.20;88.80;;;;;;5017711;28;20025;-79
2023/09/27 02:30:11;;;;;;;4.60;2.90;;;19.20;88.80;;;;;;5017449;28;20525;-80
2023/09/27 02:32:39;;;;;;;5.60;3.10;;;19.20;88.80;;;;;;5017485;28;20446;-79
2023/09/27 02:35:04;;;;;;;4.90;3.03;;;19.10;88.80;;;;;;5017604;28;20406;-79
2023/09/27 02:37:31;;;;;;;5.45;3.20;;;19.20;88.90;;;;;;5035244;28;20022;-80
2023/09/27 02:39:58;;;;;;;5.63;3.35;;;19.10;88.80;;;;;;5034996;28;20067;-79
2023/09/27 02:42:24;;;;;;;5.22;3.00;;;19.20;88.90;;;;;;5017550;28;20513;-80
2023/09/27 02:44:50;;;;;;;4.65;2.88;;;19.20;88.90;;;;;;5016789;28;20124;-81
2023/09/27 02:47:16;;;;;;;4.85;2.97;;;19.20;89.50;;;;;;5017345;28;20025;-80
2023/09/27 02:49:42;;;;;;;5.32;3.38;;;19.20;89.10;;;;;;5017263;28;20097;-78
2023/09/27 02:52:07;;;;;;;4.75;2.88;;;19.20;89.00;;;;;;5017175;28;20086;-78
2023/09/27 02:54:33;;;;;;;4.28;3.00;;;19.20;88.90;;;;;;5017299;28;20475;-79
2023/09/27 02:56:59;;;;;;;4.57;2.97;;;19.20;88.90;;;;;;5034851;28;20026;-78
2023/09/27 02:59:24;;;;;;;4.90;3.10;;;19.20;88.80;;;;;;5017009;28;20167;-79
2023/09/27 03:01:49;;;;;;;5.00;2.92;;;19.20;88.80;;;;;;5017220;28;20056;-79
2023/09/27 03:04:15;;;;;;;4.22;2.70;;;19.20;88.80;;;;;;5017122;28;20541;-79
2023/09/27 03:06:42;;;;;;;5.80;3.22;;;19.30;88.80;;;;;;5017185;28;20024;-79
2023/09/27 03:09:08;;;;;;;5.07;3.22;;;19.20;88.70;;;;;;5034476;28;20034;-80
2023/09/27 03:11:35;;;;;;;5.55;3.22;;;19.20;88.70;;;;;;5016930;28;20029;-79
2023/09/27 03:14:01;;;;;;;8.25;3.25;;;19.20;88.80;;;;;;5016937;28;20051;-80
2023/09/27 03:16:26;;;;;;;5.50;3.20;;;19.20;88.80;;;;;;5034570;28;20104;-79
2023/09/27 03:18:54;;;;;;;5.00;3.35;;;19.20;88.90;;;;;;5016409;28;20117;-79
2023/09/27 03:21:20;;;;;;;5.70;3.20;;;19.20;88.90;;;;;;5014415;28;20084;-80
2023/09/27 03:23:46;;;;;;;5.28;3.22;;;19.00;88.80;;;;;;5012836;28;20021;-79
2023/09/27 03:26:11;;;;;;;5.38;3.20;;;19.20;88.90;;;;;;5030967;28;20499;-80
2023/09/27 03:28:37;;;;;;;4.80;3.08;;;19.20;88.90;;;;;;5011741;28;20029;-78
2023/09/27 03:31:05;;;;;;;5.03;3.17;;;19.10;88.90;;;;;;5029336;28;20116;-79
2023/09/27 03:33:31;;;;;;;4.68;2.95;;;19.10;88.90;;;;;;5012659;28;20041;-77
2023/09/27 03:35:57;;;;;;;4.82;3.20;;;19.10;88.90;;;;;;5030548;28;20380;-79
2023/09/27 03:38:23;;;;;;;5.10;3.20;;;19.10;88.80;;;;;;5012496;28;20025;-79
2023/09/27 03:40:48;;;;;;;4.88;2.83;;;19.10;88.90;;;;;;5012813;28;20028;-80
2023/09/27 03:43:14;;;;;;;4.55;2.88;;;19.10;88.90;;;;;;5012664;28;20021;-78
2023/09/27 03:45:40;;;;;;;4.43;2.90;;;19.10;89.00;;;;;;5012539;28;20025;-78
2023/09/27 03:48:05;;;;;;;4.53;3.00;;;19.20;89.10;;;;;;5012520;28;20064;-77
2023/09/27 03:50:31;;;;;;;5.05;3.10;;;19.10;89.00;;;;;;5011822;28;20078;-80
2023/09/27 03:52:58;;;;;;;5.03;3.10;;;19.20;89.00;;;;;;5012806;28;20495;-79
2023/09/27 03:55:24;;;;;;;4.50;2.85;;;19.20;89.00;;;;;;5012809;28;20029;-78
2023/09/27 03:57:49;;;;;;;5.00;3.10;;;19.20;88.90;;;;;;5011593;28;20060;-77
2023/09/27 04:00:17;;;;;;;4.68;3.05;;;19.20;88.90;;;;;;5012714;28;20025;-79
2023/09/27 04:02:43;;;;;;;5.03;3.20;;;19.20;88.80;;;;;;5030369;28;20021;-78
2023/09/27 04:05:09;;;;;;;5.10;3.30;;;19.20;88.80;;;;;;5012682;28;20047;-78
2023/09/27 04:07:35;;;;;;;5.07;3.47;;;19.20;88.70;;;;;;5030916;28;20037;-79
2023/09/27 04:10:02;;;;;;;5.43;3.25;;;19.20;88.70;;;;;;5031259;28;20113;-80
2023/09/27 04:12:28;;;;;;;5.28;3.40;;;19.20;88.70;;;;;;5013114;28;20201;-80
2023/09/27 04:14:53;;;;;;;5.35;3.40;;;19.20;88.70;;;;;;5028855;28;20483;-79
2023/09/27 04:17:19;;;;;;;4.53;3.00;;;19.10;88.60;;;;;;5009686;28;20045;-77
2023/09/27 04:19:44;;;;;;;5.90;3.35;;;19.10;88.70;;;;;;5011711;28;20029;-81
2023/09/27 04:22:10;;;;;;;5.70;3.30;;;19.10;88.70;;;;;;5011876;28;20523;-76
2023/09/27 04:24:36;;;;;;;5.15;3.30;;;19.10;88.70;;;;;;5010085;28;20025;-80
2023/09/27 04:27:03;;;;;;;8.43;3.42;;;19.10;88.80;;;;;;5008820;28;20491;-76
2023/09/27 04:29:29;;;;;;;4.93;3.25;;;19.10;88.80;;;;;;5011328;28;20034;-80
2023/09/27 04:31:55;;;;;;;5.15;3.15;;;19.10;88.90;;;;;;5010613;28;20033;-78
2023/09/27 04:34:20;;;;;;;4.78;3.08;;;19.10;88.80;;;;;;4995956;28;20026;-80
2023/09/27 04:36:47;;;;;;;5.18;3.33;;;19.10;89.30;;;;;;4992066;28;20021;-77
2023/09/27 04:39:17;;;;;;;5.43;3.10;;;19.10;88.90;;;;;;5009145;28;20026;-80
2023/09/27 04:41:44;;;;;;;5.38;3.28;;;19.10;88.80;;;;;;4991913;28;20377;-81
2023/09/27 04:44:09;;;;;;;4.38;3.00;;;19.10;88.90;;;;;;4991707;28;20030;-77
2023/09/27 04:46:35;;;;;;;4.80;3.10;;;19.00;88.90;;;;;;4991978;28;20026;-80
2023/09/27 04:49:02;;;;;;;4.55;3.03;;;19.10;89.00;;;;;;4991546;28;20380;-78
2023/09/27 04:51:27;;;;;;;5.70;3.00;;;19.10;89.00;;;;;;4991667;28;20065;-79
2023/09/27 04:53:53;;;;;;;4.63;3.10;;;19.20;88.90;;;;;;4991658;28;20664;-77
2023/09/27 04:56:19;;;;;;;4.63;2.88;;;19.20;88.90;;;;;;4991793;28;20531;-79
2023/09/27 04:58:44;;;;;;;4.85;3.13;;;19.20;88.80;;;;;;4991229;28;20459;-79
2023/09/27 05:01:10;;;;;;;5.03;3.08;;;19.20;88.80;;;;;;4991685;28;20026;-80
2023/09/27 05:03:37;;;;;;;4.65;3.00;;;19.20;88.80;;;;;;4991570;28;20092;-80
2023/09/27 05:06:03;;;;;;;5.78;3.58;;;19.10;88.60;;;;;;4991437;28;20042;-79
2023/09/27 05:08:29;;;;;;;5.15;2.97;;;19.10;88.50;;;;;;5008617;28;20682;-78
2023/09/27 05:10:55;;;;;;;6.30;3.30;;;19.10;88.60;;;;;;4991346;28;20030;-79
2023/09/27 05:13:22;;;;;;;5.25;3.40;;;19.10;88.60;;;;;;4991506;28;20084;-78
2023/09/27 05:15:49;;;;;;;5.38;3.38;;;19.10;88.70;;;;;;4991387;28;20396;-79
2023/09/27 05:18:14;;;;;;;4.50;2.85;;;19.10;88.70;;;;;;5008805;28;20593;-78
2023/09/27 05:20:40;;;;;;;5.68;3.28;;;19.10;88.70;;;;;;4990990;28;20026;-81
2023/09/27 05:23:05;;;;;;;4.75;3.13;;;19.10;88.80;;;;;;4991326;28;20032;-77
2023/09/27 05:25:31;;;;;;;5.05;3.33;;;19.10;88.80;;;;;;4991713;28;20037;-80
2023/09/27 05:27:57;;;;;;;4.78;3.10;;;19.10;88.80;;;;;;4991199;28;20060;-81
2023/09/27 05:30:23;;;;;;;5.32;3.22;;;19.10;88.80;;;;;;4990840;28;20058;-78
2023/09/27 05:32:49;;;;;;;5.10;3.28;;;19.10;88.80;;;;;;4991680;28;20048;-80
2023/09/27 05:35:14;;;;;;;4.78;3.00;;;19.10;88.70;;;;;;4991407;28;20026;-78
2023/09/27 05:37:42;;;;;;;5.45;3.70;;;19.00;88.70;;;;;;5008945;28;20395;-79
2023/09/27 05:40:09;;;;;;;5.38;3.17;;;19.10;88.90;;;;;;4990787;28;20045;-80
2023/09/27 05:42:35;;;;;;;5.57;3.38;;;19.00;88.60;;;;;;4991034;28;20026;-79
2023/09/27 05:45:01;;;;;;;6.28;3.13;;;19.10;88.70;;;;;;5009830;28;20069;-79
2023/09/27 05:47:26;;;;;;;4.45;3.03;;;19.10;88.70;;;;;;5000891;28;20030;-80
2023/09/27 05:49:53;;;;;;;5.78;3.25;;;19.10;88.70;;;;;;5014095;28;20083;-78
2023/09/27 05:52:19;;;;;;;4.70;3.17;;;19.20;88.70;;;;;;5031614;28;20117;-79
2023/09/27 05:54:46;;;;;;;5.05;3.10;;;19.20;88.50;;;;;;5034262;28;20025;-79
2023/09/27 05:57:11;;;;;;;7.57;3.28;;;19.20;88.30;;;;;;5051379;28;20021;-79
2023/09/27 05:59:41;;;;;;;5.47;3.70;;;19.20;88.20;;;;;;5033863;28;20032;-79
2023/09/27 06:02:07;;;;;;;5.00;3.15;;;19.30;88.20;;;;;;5033978;28;20026;-78
2023/09/27 06:04:33;;;;;;;4.72;3.03;;;19.30;88.00;;;;;;5034370;28;20029;-80
2023/09/27 06:06:58;;;;;;;5.25;3.10;;;19.30;87.80;;;;;;5033963;28;20025;-80
2023/09/27 06:09:24;;;;;;;5.10;3.13;;;19.30;87.80;;;;;;5033801;28;20029;-79
2023/09/27 06:11:50;;;;;;;5.30;3.33;;;19.30;87.80;;;;;;5051831;28;20087;-79
2023/09/27 06:14:16;;;;;;;6.22;3.38;;;19.30;87.80;;;;;;5051951;28;20475;-79
2023/09/27 06:16:44;;;;;;;5.50;3.40;;;19.30;87.70;;;;;;5035062;28;20649;-80
2023/09/27 06:19:11;;;;;;;4.95;3.28;;;19.30;87.70;;;;;;5051485;28;20032;-78
2023/09/27 06:21:37;;;;;;;5.47;3.28;;;19.30;87.60;;;;;;5036541;28;20021;-79
2023/09/27 06:24:04;;;;;;;5.00;3.30;;;19.40;87.60;;;;;;5037638;28;20578;-80
2023/09/27 06:26:29;;;;;;;5.43;3.00;;;19.40;87.60;;;;;;5037499;28;20049;-79
2023/09/27 06:28:55;;;;;;;4.50;3.13;;;19.40;87.70;;;;;;5037373;28;20039;-78
2023/09/27 06:31:21;;;;;;;4.90;3.13;;;19.40;87.70;;;;;;5037531;28;20644;-80
2023/09/27 06:33:47;;;;;;;5.80;3.10;;;19.40;87.60;;;;;;5037685;28;20037;-79
2023/09/27 06:36:15;;;;;;;5.32;3.20;;;19.40;87.60;;;;;;5037496;28;20417;-80
2023/09/27 06:38:40;;;;;;;5.50;3.30;;;19.40;87.40;;;;;;5037360;28;20029;-78
2023/09/27 06:41:08;;;;;;;4.32;3.00;;;19.40;87.40;;;;;;5055094;28;20067;-79
2023/09/27 06:43:34;;;;;;;4.47;2.83;;;19.40;87.30;;;;;;5037310;28;20078;-80
2023/09/27 06:46:03;;;;;;;4.60;2.85;;;19.50;87.30;;;;;;5037270;28;20119;-79
2023/09/27 06:48:29;;;;;;;4.65;2.88;;;19.50;87.40;;;;;;5037094;28;20036;-79
2023/09/27 06:50:54;;;;;;;5.38;3.10;;;19.50;87.10;;;;;;5054863;28;20398;-79
2023/09/27 06:53:20;;;;;;;5.15;2.80;;;19.60;87.00;;;;;;5037148;28;20040;-80
2023/09/27 06:55:46;;;;;;;4.93;3.15;;;19.60;86.80;;;;;;5036805;28;20031;-78
2023/09/27 06:58:13;;;;;;;4.50;3.08;;;19.60;86.70;;;;;;5036979;28;20033;-79
2023/09/27 07:00:42;;;;;;;4.50;2.85;;;19.70;86.60;;;;;;5036820;28;20021;-80
2023/09/27 07:03:07;;;;;;;4.65;2.88;;;19.70;86.50;;;;;;5054795;28;20053;-79
2023/09/27 07:05:35;;;;;;;5.00;3.00;;;19.60;86.50;;;;;;5036923;28;20053;-79
2023/09/27 07:08:00;;;;;;;4.22;3.10;;;19.60;86.70;;;;;;5036876;28;20033;-79
2023/09/27 07:10:26;;;;;;;4.70;3.10;;;19.60;86.80;;;;;;5036463;28;20116;-78
2023/09/27 07:12:52;;;;;;;4.90;3.13;;;19.60;86.70;;;;;;5036974;28;20032;-79
2023/09/27 07:15:17;;;;;;;5.13;3.20;;;19.60;86.70;;;;;;5054576;28;20021;-79
2023/09/27 07:17:44;;;;;;;4.50;2.97;;;19.60;86.70;;;;;;5036563;28;20037;-80
2023/09/27 07:20:23;;;;;;;4.72;2.97;;;19.60;86.80;;;;;;5054237;28;20013;-79
2023/09/27 07:22:49;;;;;;;6.90;3.28;;;19.60;86.80;;;;;;5036583;28;20104;-80
2023/09/27 07:25:18;;;;;;;4.50;3.10;;;19.60;86.70;;;;;;5018372;28;20464;-80
2023/09/27 07:27:44;;;;;;;4.90;3.10;;;19.60;86.80;;;;;;4997112;28;20026;-79
2023/09/27 07:30:11;;;;;;;4.63;3.00;;;19.60;86.70;;;;;;4996780;28;20026;-79
2023/09/27 07:32:40;;;;;;;4.65;3.28;;;19.70;86.70;;;;;;5032707;28;20033;-79
2023/09/27 07:35:10;;;;;;;4.60;3.03;;;19.70;86.60;;;;;;5033143;28;20025;-80
2023/09/27 07:37:39;;;;;;;4.72;3.13;;;19.70;86.60;;;;;;5032691;28;20498;-80
2023/09/27 07:40:11;;;;;;;5.38;3.58;;;19.70;86.50;;;;;;5020342;28;20025;-80
2023/09/27 07:42:38;;;;;;;4.35;3.00;;;19.70;86.40;;;;;;5032844;28;20030;-80
2023/09/27 07:45:05;;;;;;;5.10;3.30;;;19.70;86.40;;;;;;5032831;28;20025;-80
2023/09/27 07:47:31;;;;;;;5.60;3.20;;;19.80;86.40;;;;;;5032888;28;20029;-80
2023/09/27 07:49:56;;;;;;;4.88;3.20;;;19.80;86.40;;;;;;5016001;28;20554;-80
2023/09/27 07:52:22;;;;;;;4.82;3.00;;;19.80;86.30;;;;;;5016414;28;20028;-80
2023/09/27 07:54:47;;;;;;;4.60;3.25;;;19.80;86.20;;;;;;5016121;28;20079;-80
2023/09/27 07:57:14;;;;;;;5.05;3.20;;;19.80;86.10;;;;;;5015835;28;20026;-80
2023/09/27 07:59:39;;;;;;;4.65;3.10;;;19.90;86.00;;;;;;5015878;28;20049;-79
2023/09/27 08:02:05;;;;;;;4.55;2.95;;;19.90;86.00;;;;;;5012749;28;20388;-79
2023/09/27 08:04:31;;;;;;;6.03;3.20;;;19.90;85.90;;;;;;4996456;28;20400;-80
2023/09/27 08:06:56;;;;;;;5.43;3.30;;;19.90;85.80;;;;;;4996386;28;20026;-80
2023/09/27 08:09:22;;;;;;;5.00;3.15;;;19.90;85.90;;;;;;4996105;28;20067;-80
2023/09/27 08:11:48;;;;;;;4.40;2.97;;;19.90;85.80;;;;;;4996236;28;20089;-80
2023/09/27 08:14:18;;;;;;;5.85;3.10;;;19.90;85.80;;;;;;4996376;28;20033;-80
2023/09/27 08:16:43;;;;;;;5.47;3.05;;;20.00;86.30;;;;;;4996202;28;20030;-80
2023/09/27 08:19:09;;;;;;;5.65;3.47;;;20.00;85.80;;;;;;4995841;28;20671;-79
2023/09/27 08:21:34;;;;;;;4.57;3.05;;;20.10;85.80;;;;;;4996018;28;20561;-80
2023/09/27 08:24:00;;;;;;;5.10;3.00;;;20.00;85.70;;;;;;4996026;28;20028;-80
2023/09/27 08:26:26;;;;;;;5.10;3.38;;;20.00;85.60;;;;;;4995963;28;20041;-80
2023/09/27 08:28:51;;;;;;;4.47;3.00;;;20.00;85.70;;;;;;4995713;28;20107;-79
2023/09/27 08:31:17;;;;;;;4.78;3.03;;;20.00;85.70;;;;;;5013541;28;20033;-80
2023/09/27 08:33:43;;;;;;;4.65;3.15;;;20.00;85.70;;;;;;4995901;28;20033;-80
2023/09/27 08:36:09;;;;;;;4.90;3.15;;;20.00;85.80;;;;;;4995879;28;20022;-80
2023/09/27 08:38:34;;;;;;;4.90;3.30;;;20.00;85.80;;;;;;5013180;28;20545;-79
2023/09/27 08:41:00;;;;;;;5.35;3.30;;;20.00;85.70;;;;;;5013194;28;20022;-80
2023/09/27 08:43:28;;;;;;;4.78;3.00;;;20.10;85.70;;;;;;4995117;28;20057;-80
2023/09/27 08:45:54;;;;;;;4.50;3.00;;;20.10;85.70;;;;;;4995631;28;20021;-80
2023/09/27 08:48:22;;;;;;;5.25;3.20;;;20.10;85.70;;;;;;4995512;28;20026;-79
2023/09/27 08:50:49;;;;;;;4.88;3.20;;;20.00;85.70;;;;;;4995272;28;20121;-80
2023/09/27 08:53:15;;;;;;;4.55;3.13;;;20.10;85.80;;;;;;4995623;28;20090;-80
2023/09/27 08:55:47;;;;;;;5.07;3.28;;;20.00;85.80;;;;;;4995472;28;20121;-80
2023/09/27 08:58:13;;;;;;;;;;;20.00;85.90;;;;;;4995850;28;20117;-80
2023/09/27 09:00:41;;;;;;;4.75;2.90;;;20.00;85.90;;;;;;5012842;28;20291;-80
2023/09/27 09:03:07;;;;;;;5.75;3.17;;;20.00;86.00;;;;;;4995351;28;20053;-79
2023/09/27 09:05:33;;;;;;;4.70;3.03;;;20.00;86.20;;;;;;4995365;28;20514;-80
2023/09/27 09:08:01;;;;;;;4.85;3.17;;;20.00;86.30;;;;;;4995202;28;20034;-80
2023/09/27 09:10:28;;;;;;;5.30;3.28;;;20.00;86.30;;;;;;4995079;28;20026;-80
2023/09/27 09:12:54;;;;;;;5.18;3.42;;;20.00;86.10;;;;;;4995358;28;20069;-79
2023/09/27 09:15:29;;;;;;;5.03;3.30;;;20.00;86.50;;;;;;4995246;28;20518;-80
2023/09/27 09:17:57;;;;;;;4.70;3.15;;;20.10;85.90;;;;;;5012717;28;20087;-80
2023/09/27 09:22:54;;;;;;;5.20;3.25;;;20.10;85.60;;;;;;5013111;28;20057;-79
2023/09/27 09:25:24;;;;;;;5.07;3.00;;;20.10;85.60;;;;;;5012763;28;20022;-80
2023/09/27 09:28:03;;;;;;;4.90;3.40;;;20.20;85.70;;;;;;4995092;28;20037;-79
2023/09/27 09:30:39;;;;;;;5.35;3.38;;;20.20;85.70;;;;;;4994787;28;20037;-79
2023/09/27 09:33:22;;;;;;;4.47;3.00;;;20.20;85.70;;;;;;5012528;28;20492;-79
2023/09/27 09:35:48;;;;;;;5.30;3.30;;;20.20;85.70;;;;;;4995102;28;20080;-80
2023/09/27 09:38:26;;;;;;;4.65;3.00;;;20.20;85.70;;;;;;4994824;28;20357;-80
2023/09/27 09:40:53;;;;;;;4.22;3.00;;;20.20;85.60;;;;;;4994812;28;20137;-80
2023/09/27 09:43:36;;;;;;;5.15;3.28;;;20.20;85.70;;;;;;4995012;28;20018;-79
2023/09/27 09:46:08;;;;;;;4.30;3.00;;;20.10;85.90;;;;;;4995021;28;20030;-78
2023/09/27 09:48:35;;;;;;;4.80;3.15;;;20.10;86.00;;;;;;4994795;28;20053;-78
2023/09/27 09:51:03;;;;;;;4.70;3.13;;;20.10;86.10;;;;;;5012505;28;20026;-79
2023/09/27 09:53:29;;;;;;;4.22;2.90;;;20.10;86.10;;;;;;4994756;28;20050;-79
2023/09/27 09:55:57;;;;;;;4.78;3.08;;;20.10;86.10;;;;;;4997825;28;20518;-79
2023/09/27 09:58:32;;;;;;;4.35;2.95;;;20.10;86.10;;;;;;4998577;28;20030;-79
2023/09/27 10:01:01;;;;;;;4.82;3.15;;;20.00;86.10;;;;;;4998606;28;20792;-79
2023/09/27 10:03:32;;;;;;;4.07;2.80;;;20.00;86.20;;;;;;4998771;28;20034;-79
2023/09/27 10:05:59;;;;;;;;;;;20.00;86.30;;;;;;4999134;28;20018;-78
2023/09/27 10:08:27;;;;;;;4.65;3.10;;;20.00;86.50;;;;;;4998501;28;19913;-80
2023/09/27 10:10:53;;;;;;;4.63;3.00;;;20.00;86.60;;;;;;4998391;28;20471;-79
2023/09/27 10:13:19;;;;;;;5.07;3.20;;;20.00;86.70;;;;;;5016263;28;20061;-79
2023/09/27 10:15:45;;;;;;;4.45;2.70;;;20.00;86.70;;;;;;5015982;28;20041;-79
2023/09/27 10:18:28;;;;;;;4.78;3.10;;;20.00;86.70;;;;;;5015806;28;20113;-79
2023/09/27 10:21:03;;;;;;;4.85;3.22;;;20.00;86.60;;;;;;4998284;28;20395;-79
2023/09/27 10:23:57;;;;;;;4.43;2.80;;;20.00;86.50;;;;;;4998201;28;20045;-79
2023/09/27 10:26:28;;;;;;;5.25;3.30;;;20.00;86.50;;;;;;4998342;28;20391;-79
2023/09/27 10:29:16;;;;;;;4.22;2.85;;;20.10;86.40;;;;;;5015405;28;20092;-80
2023/09/27 10:31:57;;;;;;;5.05;3.13;;;20.10;86.30;;;;;;4998352;28;20546;-79
2023/09/27 10:34:25;;;;;;;4.30;2.80;;;20.10;86.30;;;;;;5015667;28;20105;-79
2023/09/27 10:36:52;;;;;;;4.93;2.97;;;20.10;86.20;;;;;;4998076;28;20473;-80
2023/09/27 10:39:17;;;;;;;5.07;3.03;;;20.20;86.30;;;;;;4997746;28;20121;-78
2023/09/27 10:41:46;;;;;;;4.20;2.95;;;20.20;86.20;;;;;;4997948;28;20049;-79
2023/09/27 10:44:13;;;;;;;5.47;3.30;;;20.20;86.20;;;;;;4997821;28;20029;-79
2023/09/27 10:46:47;;;;;;;4.43;2.72;;;20.20;86.20;;;;;;4997829;28;20057;-79
2023/09/27 10:49:22;;;;;;;4.63;2.92;;;20.20;86.00;;;;;;5023611;28;20052;-80
2023/09/27 10:51:48;;;;;;;4.28;2.75;;;20.30;86.00;;;;;;5017304;28;20029;-79
2023/09/27 10:54:14;;;;;;;4.57;2.60;;;20.30;85.90;;;;;;5017462;28;20183;-79
2023/09/27 10:56:44;;;;;;;4.18;2.78;;;20.30;85.80;;;;;;5017098;28;20034;-79
2023/09/27 10:59:10;;;;;;;4.60;3.10;;;20.30;85.80;;;;;;5016907;28;20499;-80
2023/09/27 11:01:43;;;;;;;4.18;2.75;;;20.30;85.80;;;;;;5034918;28;20033;-79
2023/09/27 11:04:12;;;;;;;4.85;3.03;;;20.30;85.90;;;;;;5017182;28;20483;-79
2023/09/27 11:06:37;;;;;;;4.85;2.92;;;20.20;85.90;;;;;;5034214;28;20018;-80
2023/09/27 11:09:06;;;;;;;4.60;2.90;;;20.20;86.00;;;;;;5034776;28;20495;-80
2023/09/27 11:11:33;;;;;;;4.30;2.80;;;20.20;86.00;;;;;;5017173;28;20025;-79
2023/09/27 11:13:59;;;;;;;4.85;2.75;;;20.20;86.00;;;;;;5017042;28;20092;-79
2023/09/27 11:16:25;;;;;;;4.55;2.85;;;20.20;86.00;;;;;;5016995;28;20033;-80
2023/09/27 11:18:56;;;;;;;4.72;3.10;;;20.30;86.10;;;;;;5016593;28;20083;-79
2023/09/27 11:21:23;;;;;;;4.13;2.70;;;20.30;86.00;;;;;;5016940;28;20021;-79
2023/09/27 11:23:55;;;;;;;4.70;2.70;;;20.20;86.00;;;;;;5016710;28;20057;-79
2023/09/27 11:26:22;;;;;;;4.88;2.78;;;20.20;86.00;;;;;;5016712;28;20558;-78
2023/09/27 11:29:02;;;;;;;4.40;2.67;;;20.30;86.00;;;;;;5034174;28;20033;-79
2023/09/27 11:31:32;;;;;;;4.15;2.67;;;20.20;86.00;;;;;;5016529;28;20033;-79
2023/09/27 11:34:19;;;;;;;4.05;2.78;;;20.30;86.00;;;;;;5016546;28;20044;-80
2023/09/27 11:36:49;;;;;;;3.70;2.58;;;20.30;86.00;;;;;;5016538;28;20049;-79
2023/09/27 11:39:16;;;;;;;4.03;2.53;;;20.30;86.10;;;;;;5016126;28;20380;-81
2023/09/27 11:41:44;;;;;;;4.60;2.85;;;20.30;86.10;;;;;;5034245;28;20033;-79
2023/09/27 11:44:25;;;;;;;4.65;2.80;;;20.30;86.10;;;;;;5016428;28;20487;-80
2023/09/27 11:47:06;;;;;;;4.28;3.00;;;20.30;86.00;;;;;;5016302;28;20029;-80
2023/09/27 11:49:32;;;;;;;4.10;2.63;;;20.30;85.90;;;;;;5016038;28;20032;-79
2023/09/27 11:51:58;;;;;;;4.35;2.70;;;20.30;85.80;;;;;;5016404;28;20034;-79
2023/09/27 11:54:25;;;;;;;4.28;2.65;;;20.40;85.80;;;;;;5016204;28;20032;-79
2023/09/27 11:56:50;;;;;;;4.47;2.83;;;20.30;85.60;;;;;;5033395;28;20026;-79
2023/09/27 11:59:16;;;;;;;3.72;2.50;;;20.40;85.70;;;;;;5015819;28;20542;-79
2023/09/27 12:01:41;;;;;;;4.35;2.70;;;20.40;85.70;;;;;;5016028;28;20060;-79
2023/09/27 12:04:07;;;;;;;4.60;2.67;;;20.30;85.70;;;;;;5033669;28;20506;-79
2023/09/27 12:06:33;;;;;;;4.53;2.67;;;20.30;85.80;;;;;;5016298;28;20026;-79
2023/09/27 12:08:59;;;;;;;4.05;2.50;;;20.30;85.80;;;;;;5033367;28;20104;-79
2023/09/27 12:11:25;;;;;;;3.58;2.50;;;20.30;85.80;;;;;;5015959;28;20068;-79
2023/09/27 12:13:51;;;;;;;3.70;2.40;;;20.30;85.80;;;;;;5015893;28;20053;-80
2023/09/27 12:16:19;;;;;;;4.38;2.50;;;20.30;85.90;;;;;;5016915;28;20398;-80
2023/09/27 12:18:45;;;;;;;3.92;2.55;;;20.30;86.00;;;;;;5014608;28;20029;-79
2023/09/27 12:21:10;;;;;;;3.70;2.60;;;20.30;86.00;;;;;;5015630;28;20048;-80
2023/09/27 12:23:36;;;;;;;3.70;2.55;;;20.30;86.10;;;;;;5015803;28;20017;-79
2023/09/27 12:26:02;;;;;;;3.70;2.47;;;20.20;86.20;;;;;;5033338;28;20025;-78
2023/09/27 12:28:28;;;;;;;4.00;2.67;;;20.30;86.20;;;;;;5015423;28;20184;-78
2023/09/27 12:30:53;;;;;;;4.97;2.67;;;20.20;86.20;;;;;;5015718;28;20056;-79
2023/09/27 12:33:19;;;;;;;3.97;2.50;;;20.20;86.20;;;;;;5015300;28;20446;-80
2023/09/27 12:35:46;;;;;;;4.18;2.47;;;20.20;86.20;;;;;;5015513;28;20095;-79
2023/09/27 12:38:12;;;;;;;3.97;2.58;;;20.20;86.30;;;;;;5033021;28;20096;-79
2023/09/27 12:40:37;;;;;;;3.92;2.60;;;20.20;86.40;;;;;;5032761;28;20458;-79
2023/09/27 12:43:07;;;;;;;3.58;2.45;;;20.20;86.40;;;;;;5015251;28;20021;-79
2023/09/27 12:45:32;;;;;;;3.63;2.53;;;20.20;86.30;;;;;;5015318;28;20116;-80
2023/09/27 12:47:58;;;;;;;3.88;2.50;;;20.20;86.20;;;;;;5032907;28;20109;-80
2023/09/27 12:50:26;;;;;;;3.25;2.50;;;20.20;86.10;;;;;;5015064;28;20025;-78